createdAt,value
2019-05-18T00:00:14.746Z,11.32
2019-05-18T00:02:44.751Z,11.29
2019-05-18T00:05:14.873Z,11.28
2019-05-18T00:07:44.982Z,11.27
2019-05-18T00:10:14.952Z,11.21
2019-05-18T00:12:45.874Z,11.16
2019-05-18T00:15:15.921Z,11.11
2019-05-18T00:17:45.841Z,11.10
2019-05-18T00:20:16.251Z,11.11
2019-05-18T00:22:46.335Z,11.08
2019-05-18T00:25:16.224Z,11.08
2019-05-18T00:27:46.266Z,11.08
2019-05-18T00:30:16.689Z,11.06
2019-05-18T00:32:46.762Z,11.03
2019-05-18T00:35:16.877Z,11.01
2019-05-18T00:37:47.075Z,11.00
2019-05-18T00:40:17.058Z,10.99
2019-05-18T00:42:47.095Z,10.96
2019-05-18T00:45:17.846Z,10.96
2019-05-18T00:47:49.060Z,10.94
2019-05-18T00:50:19.229Z,10.92
2019-05-18T00:52:50.525Z,10.91
2019-05-18T00:55:20.795Z,10.90
2019-05-18T00:57:50.687Z,10.84
2019-05-18T01:00:20.836Z,10.62
2019-05-18T01:02:54.801Z,10.71
2019-05-18T01:05:25.333Z,10.72
2019-05-18T01:07:55.253Z,10.69
2019-05-18T01:10:25.169Z,10.68
2019-05-18T01:12:55.291Z,10.66
2019-05-18T01:15:27.559Z,10.62
2019-05-18T01:18:01.445Z,10.61
2019-05-18T01:20:29.869Z,10.56
2019-05-18T01:22:59.781Z,10.59
2019-05-18T01:25:29.693Z,10.61
2019-05-18T01:27:59.881Z,10.62
2019-05-18T01:30:29.919Z,10.61
2019-05-18T01:32:59.849Z,10.62
2019-05-18T01:35:30.097Z,10.59
2019-05-18T01:38:02.837Z,10.56
2019-05-18T01:40:32.721Z,10.53
2019-05-18T01:43:02.656Z,10.52
2019-05-18T01:45:32.653Z,10.53
2019-05-18T01:48:13.216Z,10.52
2019-05-18T01:50:34.259Z,10.49
2019-05-18T01:53:04.392Z,10.41
2019-05-18T01:55:34.385Z,10.40
2019-05-18T01:58:04.771Z,10.39
2019-05-18T02:00:35.284Z,10.36
2019-05-18T02:03:05.277Z,10.33
2019-05-18T02:05:35.579Z,10.31
2019-05-18T02:08:07.644Z,10.31
2019-05-18T02:10:37.911Z,10.31
2019-05-18T02:13:07.765Z,10.28
2019-05-18T02:15:37.804Z,10.26
2019-05-18T02:18:07.719Z,10.25
2019-05-18T02:20:37.771Z,10.24
2019-05-18T02:23:08.147Z,10.24
2019-05-18T02:25:38.095Z,10.19
2019-05-18T02:28:08.036Z,10.16
2019-05-18T02:30:38.031Z,10.13
2019-05-18T02:33:08.230Z,10.11
2019-05-18T02:35:38.688Z,10.08
2019-05-18T02:38:17.930Z,10.03
2019-05-18T02:40:48.694Z,9.97
2019-05-18T02:43:19.090Z,9.95
2019-05-18T02:45:49.067Z,9.93
2019-05-18T02:48:19.230Z,9.41
2019-05-18T02:50:49.424Z,9.93
2019-05-18T02:53:19.891Z,9.95
2019-05-18T02:55:50.058Z,9.92
2019-05-18T02:58:20.170Z,9.93
2019-05-18T03:00:50.992Z,9.90
2019-05-18T03:03:21.821Z,9.89
2019-05-18T03:05:51.618Z,9.88
2019-05-18T03:08:21.624Z,9.90
2019-05-18T03:10:52.949Z,9.90
2019-05-18T03:13:23.064Z,9.92
2019-05-18T03:15:53.249Z,9.91
2019-05-18T03:18:23.065Z,9.90
2019-05-18T03:20:53.125Z,9.89
2019-05-18T03:23:23.073Z,9.84
2019-05-18T03:25:53.042Z,9.82
2019-05-18T03:28:22.910Z,9.79
2019-05-18T03:30:53.036Z,9.74
2019-05-18T03:33:29.062Z,9.70
2019-05-18T03:35:55.017Z,9.69
2019-05-18T03:38:24.926Z,9.66
2019-05-18T03:40:55.359Z,9.62
2019-05-18T03:43:25.124Z,9.63
2019-05-18T03:45:55.935Z,9.66
2019-05-18T03:48:26.015Z,9.69
2019-05-18T03:50:56.339Z,9.71
2019-05-18T03:53:26.448Z,9.73
2019-05-18T03:55:56.225Z,9.74
2019-05-18T03:58:26.083Z,9.76
2019-05-18T04:00:56.141Z,9.77
2019-05-18T04:03:28.824Z,9.73
2019-05-18T04:05:58.732Z,9.70
2019-05-18T04:08:28.749Z,9.71
2019-05-18T04:10:58.728Z,9.76
2019-05-18T04:13:29.077Z,9.79
2019-05-18T04:15:58.957Z,9.77
2019-05-18T04:18:28.834Z,9.80
2019-05-18T04:21:01.769Z,9.79
2019-05-18T04:23:31.639Z,9.83
2019-05-18T04:26:01.867Z,9.86
2019-05-18T04:28:32.467Z,9.88
2019-05-18T04:31:02.368Z,9.90
2019-05-18T04:33:32.156Z,9.91
2019-05-18T04:36:02.279Z,9.94
2019-05-18T04:38:32.421Z,9.96
2019-05-18T04:41:02.984Z,9.96
2019-05-18T04:43:32.851Z,10.02
2019-05-18T04:46:02.744Z,10.11
2019-05-18T04:48:32.806Z,9.99
2019-05-18T04:51:02.614Z,10.14
2019-05-18T04:53:33.545Z,10.14
2019-05-18T04:56:04.473Z,10.17
2019-05-18T04:58:34.300Z,10.22
2019-05-18T05:01:04.173Z,10.31
2019-05-18T05:03:34.316Z,10.46
2019-05-18T05:06:04.287Z,11.57
2019-05-18T05:08:34.075Z,12.83
2019-05-18T05:11:03.991Z,13.70
2019-05-18T05:13:34.052Z,14.28
2019-05-18T05:16:04.864Z,14.80
2019-05-18T05:18:35.677Z,15.27
2019-05-18T05:21:05.552Z,15.61
2019-05-18T05:23:35.423Z,15.90
2019-05-18T05:26:05.852Z,16.02
2019-05-18T05:28:35.706Z,16.30
2019-05-18T05:31:05.895Z,16.48
2019-05-18T05:33:35.743Z,16.71
2019-05-18T05:36:05.736Z,17.18
2019-05-18T05:38:35.963Z,17.48
2019-05-18T05:41:07.552Z,17.83
2019-05-18T05:43:37.433Z,18.18
2019-05-18T05:46:08.042Z,18.51
2019-05-18T05:48:38.979Z,18.83
2019-05-18T05:51:08.893Z,18.68
2019-05-18T05:53:38.881Z,18.49
2019-05-18T05:56:08.751Z,18.58
2019-05-18T05:58:38.786Z,18.55
2019-05-18T06:01:08.736Z,18.66
2019-05-18T06:03:38.926Z,18.95
2019-05-18T06:06:08.783Z,19.34
2019-05-18T06:08:38.653Z,19.63
2019-05-18T06:11:08.525Z,19.88
2019-05-18T06:13:38.538Z,19.82
2019-05-18T06:16:08.475Z,19.61
2019-05-18T06:18:38.372Z,19.39
2019-05-18T06:21:08.869Z,19.21
2019-05-18T06:23:39.185Z,18.79
2019-05-18T06:26:09.067Z,18.62
2019-05-18T06:31:52.211Z,18.59
2019-05-18T06:34:25.486Z,18.31
2019-05-18T06:36:55.957Z,17.87
2019-05-18T06:39:26.769Z,17.39
2019-05-18T06:41:56.794Z,17.37
2019-05-18T06:44:26.924Z,17.51
2019-05-18T06:46:56.845Z,17.46
2019-05-18T06:49:26.845Z,17.12
2019-05-18T06:51:56.783Z,16.88
2019-05-18T06:54:28.335Z,16.87
2019-05-18T06:57:01.422Z,16.92
2019-05-18T06:59:32.787Z,17.00
2019-05-18T07:02:03.174Z,17.01
2019-05-18T07:04:33.254Z,17.02
2019-05-18T07:07:03.418Z,17.05
2019-05-18T07:09:33.509Z,17.08
2019-05-18T07:12:03.851Z,16.86
2019-05-18T07:14:34.127Z,17.09
2019-05-18T07:17:04.083Z,17.12
2019-05-18T07:19:34.012Z,17.13
2019-05-18T07:22:05.540Z,17.13
2019-05-18T07:24:35.400Z,17.07
2019-05-18T07:27:05.418Z,16.98
2019-05-18T07:29:35.433Z,16.89
2019-05-18T07:32:05.475Z,16.81
2019-05-18T07:34:35.777Z,16.46
2019-05-18T07:37:08.558Z,16.82
2019-05-18T07:39:38.604Z,16.88
2019-05-18T07:42:33.761Z,16.83
2019-05-18T07:45:23.657Z,16.94
2019-05-18T07:47:53.943Z,17.01
2019-05-18T07:50:23.813Z,17.03
2019-05-18T07:52:53.680Z,17.09
2019-05-18T07:55:23.690Z,17.04
2019-05-18T07:57:53.590Z,17.13
2019-05-18T08:00:23.630Z,17.08
2019-05-18T08:02:54.029Z,17.07
2019-05-18T08:05:24.077Z,17.09
2019-05-18T08:07:54.463Z,17.11
2019-05-18T08:10:38.873Z,17.09
2019-05-18T08:13:09.033Z,17.06
2019-05-18T08:15:40.213Z,16.79
2019-05-18T08:18:10.290Z,17.03
2019-05-18T08:20:40.253Z,17.10
2019-05-18T08:23:10.475Z,17.18
2019-05-18T08:25:40.309Z,17.32
2019-05-18T08:28:10.227Z,17.40
2019-05-18T08:30:40.085Z,17.54
2019-05-18T08:33:10.355Z,17.66
2019-05-18T08:35:40.255Z,17.65
2019-05-18T08:38:10.287Z,17.62
2019-05-18T08:40:55.968Z,17.70
2019-05-18T08:43:26.118Z,17.71
2019-05-18T08:45:56.401Z,17.77
2019-05-18T08:48:26.285Z,17.97
2019-05-18T08:50:56.242Z,18.13
2019-05-18T08:53:26.093Z,18.21
2019-05-18T08:55:56.098Z,18.29
2019-05-18T08:58:25.941Z,18.28
2019-05-18T09:00:55.804Z,18.24
2019-05-18T09:03:25.724Z,18.28
2019-05-18T09:05:55.626Z,18.38
2019-05-18T09:08:25.486Z,18.43
2019-05-18T09:10:55.621Z,18.62
2019-05-18T09:13:25.392Z,18.68
2019-05-18T09:15:55.277Z,18.65
2019-05-18T09:18:25.174Z,18.61
2019-05-18T09:20:55.450Z,18.63
2019-05-18T09:23:25.579Z,18.72
2019-05-18T09:25:55.400Z,18.57
2019-05-18T09:28:25.255Z,18.81
2019-05-18T09:30:55.481Z,18.90
2019-05-18T09:33:25.287Z,18.91
2019-05-18T09:35:55.560Z,18.88
2019-05-18T09:38:25.420Z,18.86
2019-05-18T09:40:55.199Z,18.90
2019-05-18T09:43:25.201Z,18.99
2019-05-18T09:45:55.093Z,19.19
2019-05-18T09:48:24.960Z,19.21
2019-05-18T09:50:54.803Z,19.22
2019-05-18T09:53:24.663Z,19.24
2019-05-18T09:55:55.568Z,19.16
2019-05-18T09:58:25.728Z,19.00
2019-05-18T10:00:55.791Z,19.02
2019-05-18T10:03:25.860Z,18.96
2019-05-18T10:05:56.374Z,18.97
2019-05-18T10:08:26.669Z,18.93
2019-05-18T10:10:57.062Z,18.76
2019-05-18T10:13:27.371Z,18.72
2019-05-18T10:15:57.184Z,18.85
2019-05-18T10:18:27.176Z,19.09
2019-05-18T10:20:56.994Z,19.22
2019-05-18T10:23:27.089Z,19.35
2019-05-18T10:25:56.922Z,19.30
2019-05-18T10:28:27.394Z,19.66
2019-05-18T10:30:57.647Z,19.81
2019-05-18T10:33:27.493Z,19.73
2019-05-18T10:35:57.424Z,19.72
2019-05-18T10:38:27.231Z,19.80
2019-05-18T10:40:57.147Z,19.94
2019-05-18T10:43:27.220Z,19.93
2019-05-18T10:45:57.608Z,19.96
2019-05-18T10:48:27.712Z,20.03
2019-05-18T10:50:57.539Z,20.05
2019-05-18T10:53:29.079Z,20.23
2019-05-18T10:55:59.179Z,20.27
2019-05-18T10:58:29.080Z,20.31
2019-05-18T11:00:59.190Z,20.47
2019-05-18T11:03:29.210Z,20.52
2019-05-18T11:05:59.020Z,20.60
2019-05-18T11:08:29.181Z,20.58
2019-05-18T11:10:59.327Z,20.73
2019-05-18T11:13:29.192Z,21.02
2019-05-18T11:15:59.700Z,21.21
2019-05-18T11:18:30.412Z,21.37
2019-05-18T11:21:17.200Z,21.37
2019-05-18T11:23:56.349Z,21.14
2019-05-18T11:26:40.645Z,21.31
2019-05-18T11:29:13.722Z,21.46
2019-05-18T11:32:09.884Z,21.32
2019-05-18T11:35:08.976Z,21.14
2019-05-18T11:37:39.721Z,21.14
2019-05-18T11:40:21.706Z,21.02
2019-05-18T11:45:41.717Z,21.27
2019-05-18T11:48:11.623Z,21.31
2019-05-18T11:50:41.794Z,21.34
2019-05-18T11:53:11.738Z,21.30
2019-05-18T11:55:41.623Z,21.26
2019-05-18T11:58:11.661Z,21.24
2019-05-18T12:00:42.362Z,21.28
2019-05-18T12:03:12.824Z,21.45
2019-05-18T12:05:42.963Z,21.60
2019-05-18T12:08:13.103Z,21.52
2019-05-18T12:10:43.273Z,21.56
2019-05-18T12:13:13.406Z,21.73
2019-05-18T12:15:44.526Z,21.75
2019-05-18T12:18:14.771Z,21.69
2019-05-18T12:20:44.633Z,21.72
2019-05-18T12:23:14.509Z,21.77
2019-05-18T12:25:44.730Z,21.85
2019-05-18T12:28:15.059Z,21.85
2019-05-18T12:30:44.879Z,21.99
2019-05-18T12:33:14.856Z,22.20
2019-05-18T12:35:44.811Z,22.40
2019-05-18T12:38:14.933Z,22.28
2019-05-18T12:40:44.814Z,22.14
2019-05-18T12:43:14.705Z,22.20
2019-05-18T12:45:45.883Z,22.10
2019-05-18T12:48:15.716Z,21.97
2019-05-18T12:50:46.030Z,21.99
2019-05-18T12:53:17.657Z,21.90
2019-05-18T12:55:47.474Z,21.79
2019-05-18T12:58:17.351Z,21.89
2019-05-18T13:00:47.294Z,21.96
2019-05-18T13:03:17.703Z,21.95
2019-05-18T13:05:47.581Z,21.97
2019-05-18T13:08:17.822Z,21.97
2019-05-18T13:10:47.700Z,22.04
2019-05-18T13:13:17.676Z,22.05
2019-05-18T13:15:47.691Z,22.19
2019-05-18T13:18:17.525Z,22.34
2019-05-18T13:20:47.857Z,22.34
2019-05-18T13:23:17.764Z,22.53
2019-05-18T13:25:47.595Z,22.56
2019-05-18T13:28:17.774Z,22.56
2019-05-18T13:30:47.861Z,22.48
2019-05-18T13:33:18.076Z,22.42
2019-05-18T13:35:47.882Z,22.56
2019-05-18T13:38:17.818Z,22.70
2019-05-18T13:40:47.803Z,22.51
2019-05-18T13:43:18.778Z,22.14
2019-05-18T13:45:48.653Z,22.48
2019-05-18T13:48:19.231Z,22.50
2019-05-18T13:50:49.247Z,22.51
2019-05-18T13:53:19.265Z,22.59
2019-05-18T13:55:49.131Z,22.82
2019-05-18T13:58:19.150Z,22.65
2019-05-18T14:00:49.017Z,22.69
2019-05-18T14:03:19.189Z,22.48
2019-05-18T14:05:49.025Z,22.40
2019-05-18T14:08:18.802Z,22.15
2019-05-18T14:10:48.598Z,21.89
2019-05-18T14:13:18.545Z,21.96
2019-05-18T14:15:49.312Z,21.97
2019-05-18T14:18:19.442Z,21.87
2019-05-18T14:20:50.382Z,22.01
2019-05-18T14:23:20.175Z,22.09
2019-05-18T14:25:50.825Z,22.22
2019-05-18T14:28:20.782Z,22.09
2019-05-18T14:30:50.582Z,22.13
2019-05-18T14:33:20.373Z,22.25
2019-05-18T14:35:50.530Z,22.17
2019-05-18T14:38:21.347Z,22.29
2019-05-18T14:40:51.359Z,22.35
2019-05-18T14:43:21.243Z,22.51
2019-05-18T14:45:51.147Z,22.57
2019-05-18T14:48:21.044Z,22.53
2019-05-18T14:50:51.009Z,22.39
2019-05-18T14:53:20.856Z,22.31
2019-05-18T14:55:51.088Z,22.37
2019-05-18T14:58:21.479Z,22.37
2019-05-18T15:00:51.430Z,22.47
2019-05-18T15:03:21.689Z,22.47
2019-05-18T15:05:51.564Z,22.44
2019-05-18T15:08:21.776Z,22.61
2019-05-18T15:10:51.788Z,22.60
2019-05-18T15:13:21.959Z,22.70
2019-05-18T15:15:51.835Z,22.63
2019-05-18T15:18:21.718Z,22.49
2019-05-18T15:20:51.644Z,22.39
2019-05-18T15:23:21.646Z,22.19
2019-05-18T15:25:51.595Z,22.20
2019-05-18T15:28:21.798Z,22.28
2019-05-18T15:30:52.727Z,22.11
2019-05-18T15:33:22.650Z,22.04
2019-05-18T15:35:52.544Z,22.08
2019-05-18T15:38:22.463Z,21.97
2019-05-18T15:40:52.233Z,21.82
2019-05-18T15:43:22.982Z,21.85
2019-05-18T15:45:52.905Z,21.99
2019-05-18T15:48:22.917Z,22.00
2019-05-18T15:50:52.865Z,22.08
2019-05-18T15:53:23.884Z,22.05
2019-05-18T15:56:05.295Z,21.95
2019-05-18T15:58:25.768Z,22.03
2019-05-18T16:00:55.664Z,21.94
2019-05-18T16:03:25.760Z,21.88
2019-05-18T16:05:55.859Z,21.77
2019-05-18T16:08:26.104Z,21.70
2019-05-18T16:10:57.290Z,21.74
2019-05-18T16:13:27.158Z,21.83
2019-05-18T16:15:58.218Z,21.93
2019-05-18T16:18:28.226Z,21.96
2019-05-18T16:20:58.255Z,21.98
2019-05-18T16:23:28.198Z,22.07
2019-05-18T16:25:58.521Z,22.04
2019-05-18T16:28:30.104Z,22.02
2019-05-18T16:31:00.232Z,21.88
2019-05-18T16:33:30.143Z,21.75
2019-05-18T16:36:03.061Z,21.62
2019-05-18T16:38:33.351Z,21.53
2019-05-18T16:41:07.391Z,21.47
2019-05-18T16:43:37.500Z,21.46
2019-05-18T16:46:08.732Z,21.30
2019-05-18T16:48:39.644Z,21.54
2019-05-18T16:51:09.591Z,21.52
2019-05-18T16:53:49.381Z,21.53
2019-05-18T16:56:16.453Z,21.48
2019-05-18T16:58:46.455Z,21.37
2019-05-18T17:01:16.311Z,21.28
2019-05-18T17:03:46.529Z,21.28
2019-05-18T17:06:16.678Z,21.29
2019-05-18T17:08:46.683Z,21.29
2019-05-18T17:11:18.642Z,21.21
2019-05-18T17:13:51.036Z,21.09
2019-05-18T17:16:21.390Z,21.01
2019-05-18T17:18:51.425Z,20.98
2019-05-18T17:21:22.009Z,20.95
2019-05-18T17:23:53.985Z,20.89
2019-05-18T17:26:30.936Z,20.83
2019-05-18T17:29:03.621Z,20.81
2019-05-18T17:31:43.610Z,20.78
2019-05-18T17:34:27.392Z,20.73
2019-05-18T17:36:57.920Z,20.69
2019-05-18T17:39:32.237Z,20.65
2019-05-18T17:42:05.166Z,20.63
2019-05-18T17:44:36.951Z,20.60
2019-05-18T17:47:07.191Z,20.57
2019-05-18T17:50:08.669Z,20.55
2019-05-18T17:52:36.976Z,20.52
2019-05-18T17:55:07.488Z,20.45
2019-05-18T17:57:37.575Z,20.41
2019-05-18T18:00:09.881Z,20.38
2019-05-18T18:02:40.271Z,20.35
2019-05-18T18:05:11.661Z,20.30
2019-05-18T18:07:41.543Z,20.26
2019-05-18T18:10:12.085Z,20.24
2019-05-18T18:13:10.506Z,20.22
2019-05-18T18:15:43.425Z,20.18
2019-05-18T18:18:13.479Z,20.13
2019-05-18T18:20:43.516Z,20.09
2019-05-18T18:23:13.987Z,20.05
2019-05-18T18:25:43.836Z,19.99
2019-05-18T18:28:13.756Z,19.95
2019-05-18T18:30:43.752Z,19.86
2019-05-18T18:33:14.126Z,19.86
2019-05-18T18:35:44.422Z,19.82
2019-05-18T18:38:14.346Z,19.79
2019-05-18T18:40:44.708Z,19.74
2019-05-18T18:43:15.689Z,19.70
2019-05-18T18:45:45.665Z,19.67
2019-05-18T18:48:15.650Z,19.63
2019-05-18T18:50:45.877Z,19.59
2019-05-18T18:53:16.469Z,19.55
2019-05-18T18:55:46.700Z,19.49
2019-05-18T18:58:16.717Z,19.44
2019-05-18T19:00:46.617Z,19.38
2019-05-18T19:03:16.700Z,19.32
2019-05-18T19:05:46.672Z,19.26
2019-05-18T19:08:16.555Z,19.21
2019-05-18T19:10:47.248Z,19.15
2019-05-18T19:13:17.093Z,19.09
2019-05-18T19:15:46.894Z,19.02
2019-05-18T19:18:17.158Z,18.97
2019-05-18T19:20:47.293Z,18.92
2019-05-18T19:23:17.327Z,18.85
2019-05-18T19:25:47.345Z,18.82
2019-05-18T19:28:18.878Z,18.76
2019-05-18T19:30:49.095Z,18.71
2019-05-18T19:33:19.314Z,18.64
2019-05-18T19:35:49.482Z,18.58
2019-05-18T19:38:20.495Z,18.51
2019-05-18T19:40:50.460Z,18.46
2019-05-18T19:43:20.457Z,18.41
2019-05-18T19:45:50.602Z,18.37
2019-05-18T19:48:20.925Z,18.32
2019-05-18T19:50:50.722Z,18.29
2019-05-18T19:53:20.631Z,18.24
2019-05-18T19:55:50.824Z,18.20
2019-05-18T19:58:21.022Z,18.17
2019-05-18T20:00:50.849Z,18.09
2019-05-18T20:03:20.867Z,18.01
2019-05-18T20:05:50.821Z,17.96
2019-05-18T20:08:20.853Z,17.92
2019-05-18T20:10:50.946Z,17.87
2019-05-18T20:13:21.056Z,17.84
2019-05-18T20:15:51.267Z,17.81
2019-05-18T20:18:21.082Z,17.75
2019-05-18T20:20:51.067Z,17.69
2019-05-18T20:23:20.982Z,17.66
2019-05-18T20:25:50.931Z,17.61
2019-05-18T20:28:23.707Z,17.56
2019-05-18T20:30:53.316Z,17.48
2019-05-18T20:33:23.137Z,17.42
2019-05-18T20:35:53.013Z,17.38
2019-05-18T20:38:23.308Z,17.35
2019-05-18T20:40:53.275Z,17.32
2019-05-18T20:43:23.498Z,17.27
2019-05-18T20:45:53.561Z,17.20
2019-05-18T20:48:23.757Z,17.16
2019-05-18T20:50:54.102Z,17.08
2019-05-18T20:53:24.337Z,17.00
2019-05-18T20:55:54.543Z,16.94
2019-05-18T20:58:38.796Z,16.93
2019-05-18T21:00:56.149Z,16.93
2019-05-18T21:03:27.273Z,16.92
2019-05-18T21:05:57.264Z,16.90
2019-05-18T21:08:28.588Z,16.85
2019-05-18T21:10:59.205Z,16.83
2019-05-18T21:13:29.351Z,16.79
2019-05-18T21:15:59.598Z,16.76
2019-05-18T21:18:30.178Z,16.73
2019-05-18T21:21:00.365Z,16.70
2019-05-18T21:23:30.421Z,16.65
2019-05-18T21:26:00.358Z,16.60
2019-05-18T21:28:30.433Z,16.54
2019-05-18T21:31:00.636Z,16.50
2019-05-18T21:33:30.646Z,16.46
2019-05-18T21:36:01.325Z,16.42
2019-05-18T21:38:31.164Z,16.26
2019-05-18T21:41:01.414Z,16.34
2019-05-18T21:43:31.328Z,16.32
2019-05-18T21:46:02.911Z,16.29
2019-05-18T21:48:33.101Z,16.28
2019-05-18T21:51:02.906Z,16.28
2019-05-18T21:53:32.986Z,16.26
2019-05-18T21:56:02.926Z,16.22
2019-05-18T21:58:32.819Z,16.17
2019-05-18T22:01:04.647Z,16.15
2019-05-18T22:03:34.577Z,16.12
2019-05-18T22:06:04.654Z,16.09
2019-05-18T22:08:34.766Z,16.04
2019-05-18T22:11:05.096Z,16.00
2019-05-18T22:13:35.401Z,15.97
2019-05-18T22:16:05.412Z,15.93
2019-05-18T22:18:35.212Z,15.86
2019-05-18T22:21:05.498Z,15.83
2019-05-18T22:23:35.628Z,15.77
2019-05-18T22:26:05.564Z,15.74
2019-05-18T22:28:35.456Z,15.71
2019-05-18T22:31:05.494Z,15.68
2019-05-18T22:33:35.430Z,15.64
2019-05-18T22:36:05.714Z,15.57
2019-05-18T22:38:35.523Z,15.54
2019-05-18T22:41:05.769Z,15.50
2019-05-18T22:43:35.834Z,15.47
2019-05-18T22:46:05.644Z,15.43
2019-05-18T22:48:41.237Z,15.41
2019-05-18T22:51:07.371Z,15.38
2019-05-18T22:53:37.478Z,15.33
2019-05-18T22:56:07.393Z,15.28
2019-05-18T22:58:37.405Z,15.24
2019-05-18T23:01:07.335Z,15.19
2019-05-18T23:03:37.602Z,15.18
2019-05-18T23:06:08.039Z,15.16
2019-05-18T23:08:38.024Z,15.11
2019-05-18T23:11:08.286Z,15.05
2019-05-18T23:13:38.452Z,15.01
2019-05-18T23:16:09.629Z,14.96
2019-05-18T23:18:39.517Z,14.90
2019-05-18T23:21:09.980Z,14.88
2019-05-18T23:23:39.984Z,14.86
2019-05-18T23:26:11.679Z,14.85
2019-05-18T23:28:42.118Z,14.81
2019-05-18T23:31:12.318Z,14.77
2019-05-18T23:33:42.208Z,14.74
2019-05-18T23:36:12.944Z,14.69
2019-05-18T23:38:43.046Z,14.68
2019-05-18T23:41:13.210Z,14.69
2019-05-18T23:43:43.444Z,14.67
2019-05-18T23:46:13.317Z,14.64
2019-05-18T23:48:44.120Z,14.62
2019-05-18T23:51:14.239Z,14.60
2019-05-18T23:53:44.478Z,14.61
2019-05-18T23:56:14.453Z,14.62
2019-05-18T23:58:44.665Z,14.59
